createdAt,value
2018-01-25T00:08:42.337Z,6.20
2018-01-25T00:11:11.025Z,7.18
2018-01-25T00:31:49.005Z,7.10
2018-01-25T00:34:20.565Z,8.05
2018-01-25T00:36:48.881Z,9.45
2018-01-25T00:39:18.760Z,7.82
2018-01-25T00:41:50.424Z,6.90
2018-01-25T00:44:19.788Z,6.05
2018-01-25T00:46:53.657Z,6.47
2018-01-25T00:49:27.997Z,7.10
2018-01-25T00:51:56.420Z,7.43
2018-01-25T00:54:27.289Z,7.78
2018-01-25T00:57:09.073Z,6.53
2018-01-25T00:59:37.921Z,7.95
2018-01-25T01:02:07.818Z,8.65
2018-01-25T01:04:43.409Z,8.60
2018-01-25T01:07:15.368Z,7.50
2018-01-25T01:09:43.527Z,7.32
2018-01-25T01:12:13.448Z,15.82
2018-01-25T01:14:44.244Z,7.75
2018-01-25T01:17:14.536Z,10.07
2018-01-25T01:19:43.716Z,9.20
2018-01-25T01:22:24.145Z,12.00
2018-01-25T01:24:54.164Z,8.48
2018-01-25T01:27:28.577Z,9.57
2018-01-25T01:30:02.017Z,7.85
2018-01-25T01:32:31.056Z,23.90
2018-01-25T01:35:10.772Z,8.75
2018-01-25T01:37:53.164Z,13.52
2018-01-25T01:40:33.908Z,8.82
2018-01-25T01:43:04.216Z,8.02
2018-01-25T01:45:46.752Z,12.15
2018-01-25T01:48:15.796Z,11.73
2018-01-25T01:50:47.489Z,8.90
2018-01-25T01:53:20.716Z,9.40
2018-01-25T01:55:49.084Z,12.02
2018-01-25T01:58:17.348Z,10.32
2018-01-25T02:00:51.144Z,10.07
2018-01-25T02:13:32.596Z,12.32
2018-01-25T03:23:04.503Z,9.57
2018-01-25T03:41:11.092Z,7.28
2018-01-25T04:04:43.952Z,7.07
2018-01-25T04:07:16.328Z,6.80
2018-01-25T04:17:47.575Z,7.72
2018-01-25T04:22:55.740Z,8.38
2018-01-25T04:25:30.371Z,6.68
2018-01-25T04:28:00.779Z,6.65
2018-01-25T04:46:09.947Z,7.57
2018-01-25T04:53:48.867Z,9.88
2018-01-25T05:04:11.687Z,5.72
2018-01-25T05:14:29.571Z,6.37
2018-01-25T05:19:59.307Z,6.60
2018-01-25T05:22:41.775Z,8.82
2018-01-25T05:25:11.583Z,6.28
2018-01-25T05:27:39.611Z,8.35
2018-01-25T05:30:09.651Z,8.75
2018-01-25T05:32:37.703Z,6.93
2018-01-25T05:35:07.719Z,5.80
2018-01-25T05:37:47.103Z,6.70
2018-01-25T05:40:20.367Z,5.95
2018-01-25T05:42:48.390Z,7.95
2018-01-25T05:45:16.483Z,8.73
2018-01-25T05:47:45.503Z,5.43
2018-01-25T05:50:25.911Z,6.85
2018-01-25T05:52:55.855Z,7.80
2018-01-25T05:55:24.859Z,5.75
2018-01-25T05:57:58.759Z,6.60
2018-01-25T06:00:30.743Z,7.00
2018-01-25T06:02:58.755Z,7.40
2018-01-25T06:05:27.687Z,8.80
2018-01-25T06:08:00.055Z,6.45
2018-01-25T06:10:33.959Z,7.57
2018-01-25T06:13:05.631Z,7.37
2018-01-25T06:15:38.423Z,7.80
2018-01-25T06:18:10.132Z,15.23
2018-01-25T06:20:38.179Z,10.02
2018-01-25T06:23:06.519Z,8.68
2018-01-25T06:25:34.831Z,6.40
2018-01-25T06:28:08.299Z,6.03
2018-01-25T06:30:37.107Z,11.52
2018-01-25T06:33:05.135Z,6.50
2018-01-25T06:35:36.371Z,9.32
2018-01-25T06:38:08.155Z,8.60
2018-01-25T06:40:36.179Z,7.05
2018-01-25T06:43:11.771Z,11.18
2018-01-25T06:45:46.591Z,13.20
2018-01-25T06:48:15.571Z,5.85
2018-01-25T06:50:49.471Z,9.10
2018-01-25T06:53:17.498Z,10.10
2018-01-25T06:55:45.519Z,7.87
2018-01-25T06:58:13.534Z,5.32
2018-01-25T07:00:41.568Z,6.25
2018-01-25T07:03:14.746Z,8.02
2018-01-25T07:05:42.775Z,6.10
2018-01-25T07:08:10.790Z,8.80
2018-01-25T07:10:45.787Z,8.52
2018-01-25T07:13:13.802Z,7.70
2018-01-25T07:15:47.017Z,6.55
2018-01-25T07:18:15.834Z,12.25
2018-01-25T07:20:49.486Z,7.10
2018-01-25T07:23:17.506Z,5.60
2018-01-25T07:25:55.215Z,6.03
2018-01-25T07:28:25.147Z,6.65
2018-01-25T07:30:55.190Z,8.57
2018-01-25T07:33:25.902Z,5.40
2018-01-25T07:35:54.803Z,9.18
2018-01-25T07:38:32.479Z,5.10
2018-01-25T07:41:07.547Z,6.03
2018-01-25T07:43:39.370Z,7.87
2018-01-25T07:46:11.191Z,7.03
2018-01-25T07:48:39.203Z,6.15
2018-01-25T07:51:07.327Z,11.15
2018-01-25T07:53:37.194Z,7.68
2018-01-25T07:56:05.207Z,5.12
2018-01-25T07:58:37.118Z,7.53
2018-01-25T08:01:10.872Z,6.10
2018-01-25T08:03:42.473Z,6.78
2018-01-25T08:06:12.391Z,6.12
2018-01-25T08:08:40.410Z,5.57
2018-01-25T08:11:09.339Z,5.65
2018-01-25T08:13:45.583Z,5.30
2018-01-25T08:16:21.255Z,6.47
2018-01-25T08:18:50.162Z,5.95
2018-01-25T08:21:31.391Z,6.72
2018-01-25T08:23:59.403Z,5.90
2018-01-25T08:26:31.747Z,5.57
2018-01-25T08:29:04.663Z,8.20
2018-01-25T08:31:32.679Z,6.40
2018-01-25T08:34:01.579Z,10.85
2018-01-25T08:36:47.173Z,7.68
2018-01-25T08:39:16.071Z,5.12
2018-01-25T08:41:50.104Z,5.82
2018-01-25T08:44:18.098Z,6.60
2018-01-25T08:46:47.774Z,8.88
2018-01-25T08:49:15.787Z,5.90
2018-01-25T08:51:44.567Z,7.53
2018-01-25T08:54:14.244Z,7.22
2018-01-25T08:56:42.266Z,4.95
2018-01-25T08:59:14.262Z,5.00
2018-01-25T09:01:48.039Z,5.60
2018-01-25T09:04:24.510Z,5.60
2018-01-25T09:06:54.427Z,4.95
2018-01-25T09:09:25.522Z,5.93
2018-01-25T09:11:54.437Z,15.98
2018-01-25T09:14:26.986Z,5.65
2018-01-25T09:16:56.886Z,5.95
2018-01-25T09:19:24.907Z,7.40
2018-01-25T09:21:56.818Z,8.35
2018-01-25T09:24:26.730Z,6.82
2018-01-25T09:26:54.778Z,9.77
2018-01-25T09:29:22.802Z,8.98
2018-01-25T09:31:55.346Z,4.70
2018-01-25T09:34:29.018Z,6.32
2018-01-25T09:37:00.266Z,6.53
2018-01-25T09:39:28.282Z,6.95
2018-01-25T09:42:00.898Z,5.20
2018-01-25T09:44:39.386Z,5.30
2018-01-25T09:47:07.418Z,5.20
2018-01-25T09:49:38.681Z,4.50
2018-01-25T09:52:13.282Z,6.62
2018-01-25T09:54:46.226Z,4.97
2018-01-25T09:57:14.343Z,6.28
2018-01-25T09:59:43.049Z,5.70
2018-01-25T10:02:12.986Z,5.25
2018-01-25T10:04:46.194Z,6.57
2018-01-25T10:07:14.638Z,4.55
2018-01-25T10:09:47.074Z,6.78
2018-01-25T10:12:15.086Z,4.28
2018-01-25T10:14:55.842Z,4.90
2018-01-25T10:17:38.758Z,5.95
2018-01-25T10:20:13.442Z,5.28
2018-01-25T10:22:49.890Z,4.15
2018-01-25T10:25:17.914Z,4.55
2018-01-25T10:27:46.702Z,4.10
2018-01-25T10:30:22.818Z,6.72
2018-01-25T10:32:50.826Z,6.22
2018-01-25T10:35:37.485Z,5.47
2018-01-25T10:38:12.285Z,5.43
2018-01-25T10:40:48.286Z,4.67
2018-01-25T10:43:17.214Z,5.12
2018-01-25T10:45:52.810Z,4.73
2018-01-25T10:48:20.818Z,4.50
2018-01-25T10:50:48.838Z,4.60
2018-01-25T10:53:20.998Z,4.53
2018-01-25T10:56:10.886Z,4.93
2018-01-25T10:58:42.838Z,5.40
2018-01-25T11:01:17.474Z,4.90
2018-01-25T11:03:47.454Z,4.43
2018-01-25T11:06:22.130Z,8.23
2018-01-25T11:08:51.162Z,4.97
2018-01-25T11:11:19.182Z,10.13
2018-01-25T11:13:53.354Z,6.07
2018-01-25T11:16:25.597Z,5.30
2018-01-25T11:18:57.594Z,6.53
2018-01-25T11:21:30.339Z,6.40
2018-01-25T11:23:59.238Z,4.73
2018-01-25T11:26:32.779Z,5.77
2018-01-25T11:29:01.586Z,6.73
2018-01-25T11:31:32.510Z,4.70
2018-01-25T11:34:04.274Z,3.93
2018-01-25T11:36:50.350Z,5.70
2018-01-25T11:39:26.927Z,4.50
2018-01-25T11:41:54.897Z,4.10
2018-01-25T11:44:26.697Z,4.27
2018-01-25T11:46:57.758Z,4.30
2018-01-25T11:49:26.682Z,6.27
2018-01-25T11:51:59.433Z,6.60
2018-01-25T11:54:28.414Z,5.17
2018-01-25T11:56:57.333Z,5.33
2018-01-25T11:59:28.067Z,5.10
2018-01-25T12:01:59.393Z,15.33
2018-01-25T12:04:27.441Z,6.20
2018-01-25T12:07:13.428Z,13.03
2018-01-25T12:09:41.457Z,8.83
2018-01-25T12:12:13.470Z,8.93
2018-01-25T12:14:41.497Z,8.73
2018-01-25T12:17:11.465Z,3.77
2018-01-25T12:19:39.494Z,4.50
2018-01-25T12:22:13.522Z,5.60
2018-01-25T12:24:46.430Z,4.27
2018-01-25T12:29:41.671Z,4.10
2018-01-25T12:32:14.006Z,4.90
2018-01-25T12:34:42.038Z,3.93
2018-01-25T12:37:10.946Z,6.07
2018-01-25T12:39:51.313Z,6.37
2018-01-25T12:42:21.250Z,6.00
2018-01-25T12:44:51.293Z,4.07
2018-01-25T12:47:23.337Z,4.90
2018-01-25T12:49:52.365Z,4.43
2018-01-25T12:52:20.421Z,4.13
2018-01-25T12:54:53.909Z,9.73
2018-01-25T12:57:25.449Z,4.33
2018-01-25T13:00:07.597Z,5.63
2018-01-25T13:02:37.561Z,4.30
2018-01-25T13:05:07.489Z,7.23
2018-01-25T13:07:41.613Z,3.37
2018-01-25T13:10:11.405Z,3.70
2018-01-25T13:12:40.385Z,4.20
2018-01-25T13:15:09.306Z,3.50
2018-01-25T13:17:39.965Z,5.23
2018-01-25T13:20:07.981Z,7.40
2018-01-25T13:22:36.934Z,5.40
2018-01-25T13:25:06.893Z,5.10
2018-01-25T13:27:34.907Z,4.03
2018-01-25T13:30:02.929Z,6.10
2018-01-25T13:32:31.921Z,5.80
2018-01-25T13:35:05.174Z,4.10
2018-01-25T13:37:35.134Z,8.10
2018-01-25T13:40:05.921Z,3.57
2018-01-25T13:42:34.837Z,4.73
2018-01-25T13:45:02.866Z,4.07
2018-01-25T13:47:32.798Z,6.50
2018-01-25T13:50:00.821Z,4.50
2018-01-25T13:52:34.445Z,4.43
2018-01-25T13:55:02.470Z,6.67
2018-01-25T13:57:30.492Z,5.07
2018-01-25T13:59:58.513Z,10.43
2018-01-25T14:02:26.541Z,5.77
2018-01-25T14:04:58.341Z,7.13
2018-01-25T14:07:26.336Z,4.77
2018-01-25T14:09:54.365Z,4.47
2018-01-25T14:12:23.109Z,5.97
2018-01-25T14:14:52.141Z,11.73
2018-01-25T14:17:20.173Z,8.40
2018-01-25T14:19:50.149Z,7.03
2018-01-25T14:22:24.045Z,7.23
2018-01-25T14:24:52.077Z,5.40
2018-01-25T14:27:22.033Z,5.13
2018-01-25T14:29:50.065Z,7.97
2018-01-25T14:32:18.130Z,6.10
2018-01-25T14:34:47.541Z,12.70
2018-01-25T14:37:27.389Z,7.70
2018-01-25T14:39:59.949Z,8.10
2018-01-25T14:42:28.897Z,6.47
2018-01-25T14:44:56.920Z,4.30
2018-01-25T14:47:24.965Z,10.50
2018-01-25T14:49:53.749Z,5.70
2018-01-25T14:52:23.533Z,4.43
2018-01-25T14:54:51.549Z,6.20
2018-01-25T14:57:19.573Z,14.33
2018-01-25T14:59:47.598Z,7.03
2018-01-25T15:02:15.617Z,5.87
2018-01-25T15:04:43.637Z,8.60
2018-01-25T15:07:11.662Z,5.60
2018-01-25T15:09:40.469Z,12.60
2018-01-25T15:12:08.509Z,9.90
2018-01-25T15:14:36.534Z,7.67
2018-01-25T15:17:04.557Z,7.57
2018-01-25T15:19:33.349Z,6.33
2018-01-25T15:22:02.305Z,6.93
2018-01-25T15:24:30.325Z,5.80
2018-01-25T15:26:59.281Z,9.00
2018-01-25T15:29:27.301Z,11.27
2018-01-25T15:31:55.349Z,6.75
2018-01-25T15:34:24.137Z,5.15
2018-01-25T15:36:52.145Z,8.30
2018-01-25T15:39:20.169Z,5.57
2018-01-25T15:41:48.957Z,7.80
2018-01-25T15:44:17.745Z,6.82
2018-01-25T15:46:46.686Z,6.60
2018-01-25T15:49:16.524Z,7.35
2018-01-25T15:51:44.549Z,6.65
2018-01-25T15:54:12.577Z,10.10
2018-01-25T15:56:40.593Z,6.10
2018-01-25T15:59:08.620Z,12.55
2018-01-25T16:01:36.641Z,13.80
2018-01-25T16:04:04.697Z,10.05
2018-01-25T16:06:32.761Z,11.65
2018-01-25T16:09:00.773Z,14.00
2018-01-25T16:11:28.797Z,8.32
2018-01-25T16:13:56.813Z,8.55
2018-01-25T16:16:25.737Z,12.77
2018-01-25T16:19:06.186Z,10.15
2018-01-25T16:21:52.853Z,10.90
2018-01-25T16:24:24.169Z,12.73
2018-01-25T16:26:55.977Z,13.75
2018-01-25T16:29:30.453Z,8.23
2018-01-25T16:31:59.397Z,13.52
2018-01-25T16:34:37.057Z,7.43
2018-01-25T16:37:10.961Z,11.30
2018-01-25T16:39:42.353Z,7.70
2018-01-25T16:42:17.665Z,7.32
2018-01-25T16:44:51.597Z,8.75
2018-01-25T16:47:20.501Z,8.38
2018-01-25T16:49:50.413Z,6.25
2018-01-25T16:52:18.425Z,8.20
2018-01-25T16:54:47.353Z,9.68
2018-01-25T16:57:16.337Z,9.50
2018-01-25T16:59:46.245Z,10.20
2018-01-25T17:02:14.261Z,6.87
2018-01-25T17:04:49.573Z,7.30
2018-01-25T17:07:20.605Z,9.10
2018-01-25T17:09:48.629Z,11.50
2018-01-25T17:12:17.569Z,16.35
2018-01-25T17:14:45.589Z,16.12
2018-01-25T17:17:15.561Z,18.25
2018-01-25T17:19:44.601Z,16.40
2018-01-25T17:22:15.805Z,13.60
2018-01-25T17:24:45.712Z,15.80
2018-01-25T17:27:15.621Z,12.57
2018-01-25T17:29:44.541Z,12.10
2018-01-25T17:32:15.245Z,11.98
2018-01-25T17:34:48.753Z,8.10
2018-01-25T17:37:16.749Z,9.60
2018-01-25T17:39:50.237Z,8.48
2018-01-25T17:42:20.009Z,10.15
2018-01-25T17:45:06.505Z,10.43
2018-01-25T17:47:35.509Z,10.30
2018-01-25T17:50:16.993Z,12.57
2018-01-25T17:52:45.892Z,12.18
2018-01-25T17:55:21.624Z,14.43
2018-01-25T17:57:49.709Z,13.95
2018-01-25T18:00:38.513Z,8.27
2018-01-25T18:03:07.461Z,10.05
2018-01-25T18:05:46.385Z,11.73
2018-01-25T18:08:18.237Z,12.82
2018-01-25T18:10:55.017Z,11.70
2018-01-25T18:13:25.024Z,9.68
2018-01-25T18:16:08.004Z,14.60
2018-01-25T18:21:36.572Z,10.05
2018-01-25T18:24:05.124Z,12.13
2018-01-25T18:26:38.399Z,12.63
2018-01-25T18:29:13.440Z,12.55
2018-01-25T18:31:42.959Z,15.73
2018-01-25T18:34:12.876Z,18.90
2018-01-25T18:36:41.892Z,13.95
2018-01-25T18:39:29.424Z,13.75
2018-01-25T18:41:57.648Z,14.48
2018-01-25T18:44:28.964Z,12.15
2018-01-25T18:47:04.736Z,12.85
2018-01-25T18:49:35.152Z,15.32
2018-01-25T18:52:16.744Z,17.00
2018-01-25T18:54:46.044Z,10.82
2018-01-25T18:57:16.088Z,13.25
2018-01-25T18:59:52.188Z,17.67
2018-01-25T19:02:22.761Z,12.18
2018-01-25T19:04:52.164Z,15.70
2018-01-25T19:07:26.530Z,16.70
2018-01-25T19:10:04.572Z,15.07
2018-01-25T19:12:34.760Z,14.55
2018-01-25T19:15:11.174Z,15.85
2018-01-25T19:17:40.187Z,21.50
2018-01-25T19:20:08.205Z,18.77
2018-01-25T19:22:37.008Z,18.60
2018-01-25T19:25:16.552Z,17.52
2018-01-25T19:27:48.367Z,15.15
2018-01-25T19:30:22.276Z,21.80
2018-01-25T19:32:50.488Z,25.08
2018-01-25T19:35:19.728Z,22.02
2018-01-25T19:38:07.856Z,15.60
2018-01-25T19:40:39.920Z,20.40
2018-01-25T19:43:08.584Z,15.90
2018-01-25T19:45:38.175Z,20.83
2018-01-25T19:48:08.604Z,19.08
2018-01-25T19:50:40.144Z,18.65
2018-01-25T19:53:11.164Z,15.90
2018-01-25T19:55:41.967Z,19.00
2018-01-25T19:58:14.408Z,15.32
2018-01-25T20:00:46.147Z,18.02
2018-01-25T20:03:16.104Z,20.67
2018-01-25T20:05:44.360Z,24.10
2018-01-25T20:08:18.744Z,18.37
2018-01-25T20:10:49.587Z,17.60
2018-01-25T20:13:19.759Z,19.55
2018-01-25T20:15:53.284Z,19.48
2018-01-25T20:18:21.336Z,21.20
2018-01-25T20:20:52.651Z,17.58
2018-01-25T20:23:27.083Z,18.95
2018-01-25T20:25:57.192Z,16.37
2018-01-25T20:28:25.252Z,16.67
2018-01-25T20:31:06.976Z,16.37
2018-01-25T20:33:35.108Z,18.65
2018-01-25T20:36:07.028Z,18.52
2018-01-25T20:38:36.024Z,17.33
2018-01-25T20:41:04.063Z,16.58
2018-01-25T20:43:34.055Z,14.52
2018-01-25T20:46:04.141Z,16.25
2018-01-25T20:48:33.172Z,18.33
2018-01-25T20:51:03.196Z,15.35
2018-01-25T20:53:34.035Z,18.40
2018-01-25T20:56:02.069Z,15.65
2018-01-25T20:58:34.196Z,19.75
2018-01-25T21:01:09.560Z,18.42
2018-01-25T21:03:41.688Z,16.37
2018-01-25T21:06:10.676Z,20.10
2018-01-25T21:08:40.726Z,15.25
2018-01-25T21:11:17.647Z,19.17
2018-01-25T21:13:50.399Z,15.07
2018-01-25T21:16:23.184Z,17.65
2018-01-25T21:18:57.797Z,14.05
2018-01-25T21:21:29.972Z,15.05
2018-01-25T21:23:59.928Z,16.35
2018-01-25T21:26:31.640Z,15.05
2018-01-25T21:28:59.727Z,17.90
2018-01-25T21:31:36.864Z,15.38
2018-01-25T21:34:07.996Z,17.45
2018-01-25T21:39:15.340Z,21.10
2018-01-25T21:41:51.783Z,14.85
2018-01-25T21:49:39.568Z,16.10
2018-01-25T21:57:25.527Z,14.70
2018-01-25T22:05:06.062Z,18.35
2018-01-25T22:10:14.603Z,17.00
2018-01-25T22:30:55.919Z,15.85
2018-01-25T22:33:26.155Z,21.77
2018-01-25T22:35:55.879Z,12.82
2018-01-25T22:38:30.588Z,13.65
2018-01-25T22:41:08.552Z,12.75
2018-01-25T22:43:37.596Z,14.60
2018-01-25T22:46:06.603Z,14.35
2018-01-25T23:01:31.691Z,19.40
2018-01-25T23:11:40.440Z,14.57
2018-01-25T23:14:20.747Z,12.60
2018-01-25T23:16:48.920Z,16.33
2018-01-25T23:19:21.407Z,13.45
2018-01-25T23:21:50.483Z,13.10
2018-01-25T23:24:20.475Z,12.52
2018-01-25T23:26:49.959Z,12.82
2018-01-25T23:29:18.983Z,12.88
2018-01-25T23:31:59.307Z,13.30
2018-01-25T23:34:33.436Z,12.27
2018-01-25T23:37:04.751Z,15.10
2018-01-25T23:39:34.832Z,15.60
2018-01-25T23:42:10.163Z,13.45
2018-01-25T23:44:38.543Z,15.13
2018-01-25T23:47:06.851Z,20.58
2018-01-25T23:49:39.663Z,15.00
2018-01-25T23:52:11.220Z,14.35
2018-01-25T23:54:40.291Z,13.60
2018-01-25T23:57:11.065Z,16.73
